Latest Weather Observations for Cooma Airport

IDN60801

Issued at 8:33 am EDT Saturday 7 March 2015 (issued every 30 minutes, with the page automatically refreshed every 10 minutes)

About weather observations | Map of weather stations | Latest weather observations for NSW | Other Formats
Station Details ID: 070217 Name: COOMA AIRPORT AWS Lat: -36.29 Lon: 148.97 Height: 930.0 m
Data from the previous 72 hours. | See also: Recent months for locations in New South Wales
Date/Time
EDT
Temp
°C
App
Temp
°C
Dew
Point
Rel
Hum
%
Delta-T
°C
Wind Press
QNH
hPa
Press
MSL
hPa
Rain
since 9 am
mm
Dir
 
Spd
km/h
Gust
km/h
Spd
kts
Gust
kts
07/08:30am 9.5 7.4 8.4 93 0.6 NE 9 11 5 6 1013.4 1010.4 -
07/08:00am 6.7 5.9 6.6 99 0.0 CALM 0 7 0 4 1013.3 1010.3 -
07/07:30am 3.9 2.5 3.8 99 0.0 CALM 0 0 0 0 1013.2 1010.2 -
07/07:00am 2.2 0.5 1.6 96 0.2 CALM 0 0 0 0 1012.7 1009.8 -
07/06:30am 2.8 0.8 2.2 96 0.3 NNE 2 7 1 4 1012.4 1009.4 -
07/06:00am 3.4 1.5 2.8 96 0.3 NNE 2 7 1 4 1012.1 1009.1 -
07/05:30am 3.9 2.0 2.9 93 0.4 ENE 2 6 1 3 1012.0 1009.0 -
07/05:00am 6.0 5.1 5.9 99 0.0 CALM 0 0 0 0 1012.0 1009.0 -
07/04:30am 6.0 5.1 5.9 99 0.0 CALM 0 0 0 0 1012.3 1009.3 -
07/04:00am 5.6 4.6 5.5 99 0.0 CALM 0 0 0 0 1012.4 1009.4 -
07/03:30am 3.8 2.0 3.7 99 0.0 ESE 2 7 1 4 1012.4 1009.4 -
07/03:00am 3.6 0.8 2.3 91 0.6 N 6 11 3 6 1012.0 1009.0 0.0
07/02:30am 5.4 3.5 5.0 97 0.2 N 4 7 2 4 1012.1 1009.1 -
07/02:00am 4.6 3.1 2.9 89 0.7 CALM 0 0 0 0 1012.5 1009.6 -
07/01:30am 5.1 3.8 4.2 94 0.4 CALM 0 6 0 3 1012.6 1009.7 -
07/01:00am 4.9 3.2 3.9 93 0.4 ENE 2 7 1 4 1012.6 1009.7 -
07/12:30am 6.0 4.9 5.0 93 0.5 CALM 0 6 0 3 1012.3 1009.3 -
07/12:00am 6.5 4.4 5.6 94 0.4 SW 6 9 3 5 1012.2 1009.2 -
 
Date/Time
EDT
Temp
°C
App
Temp
°C
Dew
Point
Rel
Hum
%
Delta-T
°C
Wind Press
QNH
hPa
Press
MSL
hPa
Rain
since 9 am
mm
Dir
 
Spd
km/h
Gust
km/h
Spd
kts
Gust
kts
06/11:30pm 6.7 5.6 4.9 88 0.8 CALM 0 0 0 0 1012.0 1009.0 -
06/11:00pm 7.9 6.9 5.4 84 1.2 CALM 0 0 0 0 1012.1 1009.1 -
06/10:30pm 8.4 6.1 5.5 82 1.4 SW 7 11 4 6 1011.8 1008.9 -
06/10:00pm 9.0 6.6 5.4 78 1.7 NW 7 9 4 5 1011.8 1008.9 -
06/09:30pm 12.0 8.3 6.3 68 2.8 WNW 15 20 8 11 1011.6 1008.7 -
06/09:00pm 12.9 9.6 6.3 64 3.3 W 13 19 7 10 1011.4 1008.4 0.0
06/08:30pm 12.9 8.9 6.5 65 3.2 WNW 17 24 9 13 1010.6 1007.7 -
06/08:00pm 13.7 10.4 6.3 61 3.7 WNW 13 19 7 10 1010.1 1007.1 -
06/07:30pm 14.9 10.9 6.5 57 4.3 W 17 24 9 13 1009.7 1006.7 -
06/07:00pm 17.1 12.2 6.9 51 5.3 WSW 22 30 12 16 1009.2 1006.2 -
06/06:30pm 18.2 13.3 6.7 47 6.0 SW 22 35 12 19 1008.8 1005.8 -
06/06:00pm 18.7 12.6 6.5 45 6.4 SW 28 35 15 19 1008.6 1005.5 -
06/05:30pm 19.4 13.3 6.8 44 6.7 SW 28 35 15 19 1008.2 1005.2 -
06/05:00pm 18.7 12.7 6.9 46 6.2 SW 28 39 15 21 1008.0 1005.0 -
06/04:30pm 19.0 13.4 7.1 46 6.3 WSW 26 37 14 20 1007.9 1004.9 -
06/04:00pm 19.3 12.2 5.7 41 7.0 SW 32 46 17 25 1007.8 1004.8 -
06/03:31pm 19.5 11.2 6.3 42 6.9 SW 39 57 21 31 1007.5 1004.4 -
06/03:30pm 19.7 11.4 6.1 41 7.1 SW 39 54 21 29 1007.6 1004.5 -
06/03:00pm 19.1 10.3 5.6 41 7.0 SW 41 56 22 30 1007.9 1004.9 -
06/02:42pm 19.5 11.0 5.2 39 7.3 SW 39 59 21 32 1007.6 1004.5 -
06/02:30pm 19.1 10.3 5.6 41 7.0 SW 41 56 22 30 1007.6 1004.5 -
06/02:04pm 20.0 12.9 6.4 41 7.2 SW 33 52 18 28 1007.6 1004.5 -
06/02:00pm 20.2 13.2 6.9 42 7.1 SW 33 48 18 26 1007.6 1004.5 -
06/01:33pm 19.8 11.5 6.2 41 7.1 SSW 39 57 21 31 1007.4 1004.3 -
06/01:30pm 20.1 11.5 6.4 41 7.2 SSW 41 57 22 31 1007.4 1004.3 -
06/01:00pm 19.7 11.2 7.1 44 6.7 SW 41 57 22 31 1007.6 1004.5 -
06/12:42pm 19.8 12.2 7.5 45 6.6 SW 37 56 20 30 1007.7 1004.6 -
06/12:30pm 19.0 11.0 7.4 47 6.2 SW 39 52 21 28 1007.6 1004.5 -
06/12:00pm 18.5 10.9 7.6 49 5.8 SW 37 46 20 25 1007.8 1004.8 -
06/11:38am 17.7 9.8 6.3 47 5.9 SW 37 57 20 31 1007.6 1004.5 0.0
06/11:30am 18.6 10.7 7.7 49 5.8 SW 39 50 21 27 1007.7 1004.6 0.0
06/11:00am 18.0 11.0 6.8 48 5.9 SW 33 46 18 25 1007.7 1004.6 0.0
06/10:30am 17.1 10.7 6.9 51 5.3 SW 30 43 16 23 1007.9 1004.9 0.0
06/10:00am 17.8 13.2 6.3 47 6.0 WSW 20 32 11 17 1007.8 1004.8 0.0
06/09:30am 15.9 11.8 6.1 52 5.0 W 17 24 9 13 1007.9 1004.9 0.0
06/09:00am 13.7 9.8 3.5 50 4.9 WNW 13 24 7 13 1007.8 1004.8 -
06/08:30am 13.2 7.9 2.1 47 5.1 W 19 28 10 15 1007.9 1004.9 -
06/08:00am 11.2 5.1 0.3 47 4.7 WNW 22 35 12 19 1007.8 1004.8 -
06/07:30am 10.0 3.4 -0.5 48 4.4 WNW 24 37 13 20 1007.7 1004.6 -
06/07:00am 9.7 2.9 -1.6 45 4.6 WNW 24 35 13 19 1007.1 1004.1 -
06/06:30am 9.9 3.5 -1.8 44 4.8 W 22 32 12 17 1007.0 1004.0 -
06/06:00am 10.0 3.9 -2.3 42 5.0 WNW 20 33 11 18 1007.2 1004.2 -
06/05:30am 10.0 3.9 -2.6 41 5.1 WNW 20 28 11 15 1007.5 1004.4 -
06/05:00am 9.7 3.8 -2.3 43 4.9 WNW 19 28 10 15 1008.0 1005.0 -
06/04:30am 9.5 3.3 -2.8 42 4.9 WNW 20 32 11 17 1008.2 1005.2 -
06/04:00am 9.3 5.6 -2.6 43 4.8 NW 7 19 4 10 1008.6 1005.5 -
06/03:30am 9.6 3.9 -4.0 38 5.3 WNW 17 30 9 16 1008.9 1005.9 -
06/03:00am 9.5 2.7 -4.8 36 5.4 NW 22 33 12 18 1009.4 1006.4 0.0
06/02:30am 10.0 2.0 -5.5 33 5.8 WNW 28 43 15 23 1009.9 1006.9 -
06/02:08am 9.9 1.9 -5.6 33 5.8 WNW 28 46 15 25 1010.2 1007.2 -
06/02:00am 9.9 1.6 -5.2 34 5.7 WNW 30 46 16 25 1010.5 1007.5 -
06/01:30am 10.6 3.6 -3.8 36 5.7 WNW 24 39 13 21 1010.6 1007.7 -
06/01:00am 10.5 4.5 -2.8 39 5.4 WNW 19 32 10 17 1011.2 1008.2 -
06/12:30am 10.9 4.9 -2.8 38 5.5 WNW 19 32 10 17 1011.4 1008.4 -
06/12:00am 11.0 5.4 -2.8 38 5.6 NW 17 30 9 16 1011.7 1008.8 -
 
Date/Time
EDT
Temp
°C
App
Temp
°C
Dew
Point
Rel
Hum
%
Delta-T
°C
Wind Press
QNH
hPa
Press
MSL
hPa
Rain
since 9 am
mm
Dir
 
Spd
km/h
Gust
km/h
Spd
kts
Gust
kts
05/11:30pm 9.3 5.5 -1.1 48 4.3 NW 9 13 5 7 1012.4 1009.4 -
05/11:00pm 5.8 2.4 -0.7 63 2.6 NNW 7 13 4 7 1012.6 1009.7 -
05/10:30pm 4.8 2.8 -0.2 70 2.0 CALM 0 0 0 0 1013.3 1010.3 -
05/10:00pm 5.0 1.1 -1.2 64 2.4 SW 9 11 5 6 1013.5 1010.6 -
05/09:30pm 5.7 3.4 -2.1 57 3.0 CALM 0 0 0 0 1013.5 1010.6 -
05/09:00pm 7.9 3.8 -3.0 46 4.2 W 9 13 5 7 1013.3 1010.3 0.0
05/08:30pm 7.8 2.7 -1.7 51 3.8 SW 15 20 8 11 1012.8 1009.9 -
05/08:00pm 8.6 4.7 -1.8 48 4.2 W 9 11 5 6 1012.7 1009.8 -
05/07:30pm 9.9 5.9 -2.1 43 4.9 SSW 9 11 5 6 1012.6 1009.7 -
05/07:00pm 12.3 6.1 -3.5 33 6.4 SSW 20 26 11 14 1012.5 1009.6 -
05/06:30pm 13.9 6.1 -3.8 29 7.2 SSW 28 41 15 22 1012.2 1009.2 -
05/06:00pm 14.5 6.2 -4.7 26 7.7 SW 30 43 16 23 1012.1 1009.1 -
05/05:38pm 14.9 7.1 -3.9 27 7.7 SSW 28 48 15 26 1012.1 1009.1 -
05/05:30pm 15.0 7.8 -2.4 30 7.4 SSW 26 37 14 20 1012.3 1009.3 -
05/05:22pm 15.5 7.9 -2.0 30 7.5 SW 28 46 15 25 1012.2 1009.2 -
05/05:00pm 15.8 8.3 -1.7 30 7.6 SW 28 41 15 22 1011.5 1008.5 -
05/04:30pm 15.8 8.4 -0.4 33 7.2 SW 28 39 15 21 1011.7 1008.8 -
05/04:00pm 15.4 7.2 -1.2 32 7.3 SSW 32 43 17 23 1011.7 1008.8 -
05/03:30pm 15.8 8.9 0.0 34 7.1 SSW 26 39 14 21 1011.8 1008.9 -
05/03:10pm 15.5 7.8 -0.3 34 7.0 SSW 30 48 16 26 1012.3 1009.3 -
05/03:00pm 15.0 6.7 -1.5 32 7.1 SSW 32 46 17 25 1012.3 1009.3 -
05/02:43pm 15.1 7.3 -1.0 33 7.0 SSW 30 48 16 26 1012.4 1009.4 -
05/02:30pm 15.1 6.4 -0.6 34 6.9 SSW 35 48 19 26 1012.4 1009.4 -
05/02:00pm 14.7 5.2 -1.0 34 6.8 SSW 39 54 21 29 1012.5 1009.6 -
05/01:30pm 14.9 5.8 -0.8 34 6.9 SW 37 52 20 28 1012.3 1009.3 -
05/01:00pm 14.8 5.2 -1.3 33 7.0 SW 39 57 21 31 1012.3 1009.3 -
05/12:38pm 15.3 5.3 -1.7 31 7.3 SSW 41 61 22 33 1012.2 1009.2 -
05/12:30pm 14.3 4.4 -0.6 36 6.5 SSW 41 54 22 29 1012.1 1009.1 -
05/12:00pm 13.8 4.0 -0.3 38 6.2 SSW 41 56 22 30 1011.8 1008.9 -
05/11:30am 13.6 3.5 0.6 41 5.8 SSW 43 57 23 31 1011.4 1008.4 0.0
05/11:07am 13.2 2.9 0.6 42 5.6 SSW 44 67 24 36 1011.1 1008.1 0.0
05/11:00am 13.1 2.9 0.8 43 5.5 SSW 44 59 24 32 1011.2 1008.2 0.0
05/10:31am 12.4 3.7 3.9 56 4.0 SSW 39 50 21 27 1010.7 1007.8 0.0
05/10:30am 12.4 3.7 3.9 56 4.0 SSW 39 50 21 27 1010.7 1007.8 0.0
05/10:00am 9.8 2.1 5.4 74 2.1 S 35 54 19 29 1010.5 1007.5 0.0
05/09:41am 10.0 1.1 5.2 72 2.3 S 41 54 22 29 1010.2 1007.2 0.0
05/09:30am 10.5 1.2 5.9 73 2.2 S 44 61 24 33 1010.0 1007.0 0.0
05/09:12am 11.8 4.4 5.2 64 3.2 SW 33 50 18 27 1009.3 1006.3 0.0
05/09:00am 15.0 8.3 3.8 47 5.4 SW 28 41 15 22 1009.0 1006.0 0.0
05/08:30am 14.7 9.8 5.2 53 4.7 SW 20 26 11 14 1009.0 1006.0 0.0
05/08:00am 13.5 7.4 4.6 55 4.3 SW 26 33 14 18 1008.6 1005.5 0.0
05/07:30am 11.7 6.8 4.2 60 3.6 WSW 19 28 10 15 1007.9 1004.9 0.0
05/07:00am 11.6 6.5 3.9 59 3.6 WSW 20 32 11 17 1007.6 1004.5 0.0
05/06:30am 12.0 6.8 2.7 53 4.3 W 19 28 10 15 1007.0 1004.0 0.0
05/06:00am 12.5 7.4 3.2 53 4.4 W 19 26 10 14 1006.8 1003.8 0.0
05/05:30am 12.4 8.2 3.6 55 4.1 W 15 20 8 11 1006.6 1003.5 0.0
05/05:00am 12.6 9.8 3.3 53 4.4 NW 7 9 4 5 1006.7 1003.6 0.0
05/04:30am 13.7 10.4 2.6 47 5.2 NW 9 17 5 9 1007.2 1004.2 0.0
05/04:00am 14.3 9.7 1.6 42 5.8 WNW 15 30 8 16 1007.4 1004.3 0.0
05/03:30am 15.1 6.9 0.5 37 6.6 WNW 33 50 18 27 1007.0 1004.0 0.0
05/03:25am 15.4 7.7 0.0 35 6.9 WNW 30 50 16 27 1007.1 1004.1 0.0
05/03:00am 15.4 8.9 0.0 35 6.9 W 24 41 13 22 1007.5 1004.4 0.0
05/02:30am 15.1 11.0 -0.2 35 6.8 NW 11 24 6 13 1008.1 1005.1 0.0
05/02:00am 15.0 11.0 0.4 37 6.6 W 11 19 6 10 1008.4 1005.4 0.0
05/01:30am 15.9 11.9 0.5 35 7.0 NW 11 20 6 11 1009.1 1006.1 0.0
05/01:00am 16.0 11.6 0.6 35 7.0 NW 13 24 7 13 1009.4 1006.4 0.0
05/12:30am 13.9 10.3 0.5 40 6.0 NE 9 13 5 7 1010.0 1007.0 0.0
05/12:00am 14.1 9.8 -1.5 34 6.7 NE 11 20 6 11 1010.6 1007.7 0.0
 
Date/Time
EDT
Temp
°C
App
Temp
°C
Dew
Point
Rel
Hum
%
Delta-T
°C
Wind Press
QNH
hPa
Press
MSL
hPa
Rain
since 9 am
mm
Dir
 
Spd
km/h
Gust
km/h
Spd
kts
Gust
kts
04/11:30pm 15.7 11.3 -2.3 29 7.7 N 11 19 6 10 1011.1 1008.1 0.0
04/11:00pm 15.9 12.2 -2.6 28 7.9 NNW 7 17 4 9 1011.5 1008.5 0.0
04/10:30pm 17.5 12.2 -3.8 23 9.0 NW 15 24 8 13 1012.0 1009.0 0.0
04/10:00pm 16.9 12.7 -1.2 29 8.0 NW 11 19 6 10 1012.1 1009.1 0.0
04/09:30pm 14.4 10.3 -0.5 36 6.5 NW 11 15 6 8 1012.4 1009.4 0.0
04/09:00pm 15.2 9.7 -1.8 31 7.3 WNW 17 19 9 10 1012.3 1009.3 0.0
04/08:30pm 18.3 12.3 -3.2 23 9.2 NW 19 28 10 15 1012.0 1009.0 0.0
04/08:00pm 18.7 13.1 -2.8 23 9.4 NW 17 20 9 11 1011.7 1008.8 0.0
04/07:30pm 19.5 14.2 -4.0 20 10.0 NW 15 20 8 11 1011.6 1008.7 0.0
04/07:00pm 21.1 15.8 -3.4 19 10.8 WNW 15 22 8 12 1011.6 1008.7 0.0
04/06:30pm 22.6 17.7 -0.8 21 10.9 WNW 15 24 8 13 1012.0 1009.0 0.0
04/06:00pm 23.5 17.3 -2.9 17 12.0 WNW 20 30 11 16 1011.8 1008.9 0.0
04/05:30pm 24.5 18.7 -1.3 18 12.1 WNW 19 28 10 15 1011.6 1008.7 0.0
04/05:00pm 25.4 19.7 -0.6 18 12.5 W 19 28 10 15 1011.5 1008.5 0.0
04/04:30pm 26.1 19.9 -3.5 14 13.5 W 20 28 11 15 1011.6 1008.7 0.0
04/04:00pm 26.5 20.7 -1.3 16 13.3 WNW 19 26 10 14 1011.7 1008.8 0.0
04/03:30pm 26.4 21.5 -0.6 17 13.0 WNW 15 26 8 14 1012.0 1009.0 0.0
04/03:00pm 26.0 21.8 3.9 24 11.5 SW 15 24 8 13 1012.3 1009.3 0.0
04/02:30pm 25.9 22.8 3.8 24 11.5 SW 9 19 5 10 1012.5 1009.6 0.0
04/02:00pm 24.7 21.5 5.0 28 10.4 ENE 11 17 6 9 1013.2 1010.2 0.0
04/01:30pm 23.7 21.6 8.2 37 8.6 ENE 9 20 5 11 1013.5 1010.6 0.0
04/01:00pm 22.8 20.9 9.2 42 7.6 NE 9 15 5 8 1014.1 1011.2 0.0
04/12:30pm 21.3 20.3 11.1 52 5.9 NNE 7 11 4 6 1014.5 1011.6 0.0
04/12:00pm 17.8 17.6 13.1 74 2.8 SSE 6 9 3 5 1015.5 1012.6 0.0
04/11:33am 15.5 14.7 13.0 85 1.5 SW 9 13 5 7 1016.0 1013.1 0.0
04/11:30am 15.1 14.4 13.3 89 1.0 SW 9 13 5 7 1016.1 1013.2 0.0
04/11:00am 12.8 11.1 12.6 99 0.1 SSW 13 15 7 8 1016.5 1013.7 0.0
04/10:58am 12.8 11.5 12.6 99 0.1 SW 11 15 6 8 1016.5 1013.7 0.0
04/10:30am 11.8 10.7 11.8 100 0.0 S 9 11 5 6 1016.7 1013.8 0.0
04/10:00am 11.6 10.8 11.6 100 0.0 SW 7 11 4 6 1016.8 1013.9 0.0
04/09:30am 10.7 9.2 10.7 100 0.0 S 9 13 5 7 1016.8 1013.9 0.0
04/09:00am 10.6 9.1 10.6 100 0.0 SSW 9 13 5 7 1016.8 1013.9 0.0

Other Formats:

Comma delimited format used in spreadsheet applications
http://www.bom.gov.au/fwo/IDN60801/IDN60801.94921.axf

JavaScript Object Notation format (JSON) in row-major order
http://www.bom.gov.au/fwo/IDN60801/IDN60801.94921.json